Time;durP1;ratioP1;P1;durP2;ratioP2;P2;SDS_P1;SDS_P2;PMS_P1;PMS_P2;Temp;Humidity;BMP_temperature;BMP_pressure;BME280_temperature;BME280_humidity;BME280_pressure;Samples;Min_cycle;Max_cycle;Signal;HPM_P1;HPM_P2
2021/07/19 00:00:09;;;;;;;8.73;7.60;;;26.70;78.10;;;;;;6103110;23;20013;-90
2021/07/19 00:02:35;;;;;;;9.15;7.63;;;26.70;78.50;;;;;;6127937;23;20081;-90
2021/07/19 00:05:01;;;;;;;8.55;7.28;;;26.70;78.50;;;;;;6106457;23;20006;-90
2021/07/19 00:07:26;;;;;;;7.28;6.53;;;26.60;78.50;;;;;;6102120;23;20318;-90
2021/07/19 00:09:52;;;;;;;8.95;7.18;;;26.60;78.60;;;;;;6101858;23;20002;-90
2021/07/19 00:12:18;;;;;;;7.75;6.95;;;26.60;78.80;;;;;;6101923;23;20017;-91
2021/07/19 00:14:46;;;;;;;7.57;6.43;;;26.60;78.90;;;;;;6127526;23;20009;-91
2021/07/19 00:17:14;;;;;;;11.52;7.63;;;26.60;79.00;;;;;;6101726;23;20009;-90
2021/07/19 00:19:40;;;;;;;7.43;6.68;;;26.60;79.10;;;;;;6101600;23;20002;-91
2021/07/19 00:22:06;;;;;;;8.75;7.15;;;26.60;79.40;;;;;;6101616;23;20053;-90
2021/07/19 00:24:32;;;;;;;7.40;6.45;;;26.50;79.50;;;;;;6127722;23;20001;-90
2021/07/19 00:26:58;;;;;;;7.55;6.72;;;26.50;79.70;;;;;;6101689;23;20445;-90
2021/07/19 00:29:24;;;;;;;9.35;7.25;;;26.50;79.80;;;;;;6101493;23;20014;-90
2021/07/19 00:31:50;;;;;;;7.57;6.78;;;26.40;80.00;;;;;;6118735;23;20028;-90
2021/07/19 00:34:15;;;;;;;9.23;6.93;;;26.40;80.20;;;;;;6126205;23;20017;-90
2021/07/19 00:36:41;;;;;;;8.18;7.20;;;26.40;80.30;;;;;;6125875;23;20408;-90
2021/07/19 00:39:09;;;;;;;7.35;6.65;;;26.40;80.50;;;;;;6127370;23;20315;-90
2021/07/19 00:41:35;;;;;;;7.28;6.45;;;26.40;80.70;;;;;;6125990;23;20013;-91
2021/07/19 00:44:01;;;;;;;7.32;6.53;;;26.40;80.90;;;;;;6125796;23;20009;-90
2021/07/19 00:46:27;;;;;;;7.93;7.13;;;26.30;80.90;;;;;;6125995;23;20002;-90
2021/07/19 00:48:53;;;;;;;8.05;6.45;;;26.30;81.10;;;;;;6127339;23;20303;-90
2021/07/19 00:51:19;;;;;;;8.45;6.97;;;26.30;81.30;;;;;;6125989;23;20008;-90
2021/07/19 00:53:45;;;;;;;7.07;6.35;;;26.30;81.50;;;;;;6127315;23;20010;-90
2021/07/19 00:56:12;;;;;;;8.40;7.10;;;26.20;81.70;;;;;;6125709;23;20010;-90
2021/07/19 00:58:40;;;;;;;8.40;7.50;;;26.20;81.90;;;;;;6126007;23;20017;-90
2021/07/19 01:01:07;;;;;;;8.52;7.47;;;26.20;82.10;;;;;;6127158;23;20009;-90
2021/07/19 01:03:33;;;;;;;7.32;6.50;;;26.20;82.30;;;;;;6125905;23;20037;-90
2021/07/19 01:06:01;;;;;;;8.52;7.28;;;26.20;83.10;;;;;;6127112;23;20049;-90
2021/07/19 01:08:27;;;;;;;9.57;8.10;;;26.10;82.90;;;;;;6126195;23;20030;-90
2021/07/19 01:10:52;;;;;;;9.20;7.53;;;26.10;83.00;;;;;;6127392;23;19998;-90
2021/07/19 01:13:19;;;;;;;9.07;7.43;;;26.10;83.00;;;;;;6125496;23;20010;-90
2021/07/19 01:15:44;;;;;;;8.18;7.35;;;26.00;83.00;;;;;;6127623;23;20069;-90
2021/07/19 01:18:11;;;;;;;7.57;6.88;;;26.00;83.20;;;;;;6125936;23;20044;-91
2021/07/19 01:21:02;;;;;;;8.02;7.22;;;26.00;84.00;;;;;;6125984;23;20032;-90
2021/07/19 01:23:59;;;;;;;9.95;7.63;;;25.90;83.50;;;;;;6125821;23;20010;-90
2021/07/19 01:26:40;;;;;;;7.22;6.45;;;25.90;84.20;;;;;;6125931;23;20097;-90
2021/07/19 01:29:07;;;;;;;9.90;8.35;;;25.80;85.30;;;;;;6125986;23;20050;-90
2021/07/19 01:31:38;;;;;;;11.23;7.70;;;25.80;85.40;;;;;;6127363;23;20013;-91
2021/07/19 01:34:10;;;;;;;8.82;7.57;;;25.80;86.00;;;;;;6127013;23;20084;-90
2021/07/19 01:36:40;;;;;;;8.98;7.97;;;25.80;85.80;;;;;;6101613;23;20006;-90
2021/07/19 01:39:07;;;;;;;13.40;9.25;;;25.80;86.10;;;;;;6127442;23;20009;-90
2021/07/19 01:41:36;;;;;;;10.18;8.63;;;25.80;86.10;;;;;;6127392;23;20461;-90
2021/07/19 01:44:09;;;;;;;10.50;7.85;;;25.80;85.90;;;;;;6101647;23;20014;-90
2021/07/19 01:46:36;;;;;;;12.57;9.68;;;25.80;85.60;;;;;;6102358;23;20009;-90
2021/07/19 01:49:03;;;;;;;9.63;7.78;;;25.80;85.50;;;;;;6103253;23;20002;-90
2021/07/19 01:51:30;;;;;;;9.80;8.55;;;25.80;85.10;;;;;;6103216;23;20006;-90
2021/07/19 01:53:57;;;;;;;10.02;8.65;;;25.80;85.00;;;;;;6130974;23;20018;-91
2021/07/19 01:56:24;;;;;;;9.00;7.85;;;25.80;84.80;;;;;;6125326;23;19983;-90
2021/07/19 01:58:51;;;;;;;11.43;8.30;;;25.80;84.60;;;;;;6123152;23;20002;-91
2021/07/19 02:01:17;;;;;;;10.88;9.32;;;25.80;84.50;;;;;;6124184;23;20425;-90
2021/07/19 02:03:44;;;;;;;10.38;8.25;;;25.80;84.60;;;;;;6126348;23;20006;-90
2021/07/19 02:06:12;;;;;;;9.50;7.90;;;25.70;84.40;;;;;;6122438;23;20002;-90
2021/07/19 02:08:38;;;;;;;11.40;8.23;;;25.70;84.30;;;;;;6104505;23;20322;-90
2021/07/19 02:11:05;;;;;;;9.15;8.25;;;25.70;84.20;;;;;;6103814;23;20014;-90
2021/07/19 02:13:34;;;;;;;9.40;7.65;;;25.70;84.30;;;;;;6103047;23;20065;-91
2021/07/19 02:16:01;;;;;;;9.70;8.15;;;25.70;84.30;;;;;;6103129;23;20326;-91
2021/07/19 02:18:29;;;;;;;14.02;9.18;;;25.70;84.50;;;;;;6128986;23;20033;-90
2021/07/19 02:20:59;;;;;;;10.52;8.77;;;25.70;84.70;;;;;;6103139;23;20430;-90
2021/07/19 02:23:26;;;;;;;8.95;7.28;;;25.60;84.60;;;;;;6102792;23;20437;-90
2021/07/19 02:25:54;;;;;;;9.10;8.10;;;25.60;84.50;;;;;;6103081;23;20091;-90
2021/07/19 02:28:20;;;;;;;15.63;9.20;;;25.60;84.50;;;;;;6102776;23;20037;-90
2021/07/19 02:30:46;;;;;;;11.80;9.65;;;25.60;84.80;;;;;;6107257;23;20097;-90
2021/07/19 02:33:14;;;;;;;9.75;8.13;;;25.60;84.90;;;;;;6127103;23;20334;-90
2021/07/19 02:35:41;;;;;;;10.35;8.05;;;25.60;85.00;;;;;;6128361;23;20001;-91
2021/07/19 02:38:10;;;;;;;7.82;7.03;;;25.60;85.00;;;;;;6126748;23;20060;-90
2021/07/19 02:40:37;;;;;;;9.02;7.78;;;25.60;85.10;;;;;;6127034;23;20110;-91
2021/07/19 02:43:06;;;;;;;10.40;8.38;;;25.60;85.30;;;;;;6127035;23;20010;-90
2021/07/19 02:45:39;;;;;;;11.32;8.57;;;25.60;85.30;;;;;;6126973;23;20002;-90
2021/07/19 02:48:09;;;;;;;9.65;8.52;;;25.60;85.20;;;;;;6127217;23;20005;-90
2021/07/19 02:50:35;;;;;;;9.50;8.50;;;25.70;85.30;;;;;;6128340;23;20005;-91
2021/07/19 02:53:08;;;;;;;13.52;9.50;;;25.70;85.40;;;;;;6127394;23;20038;-90
2021/07/19 02:55:34;;;;;;;9.27;8.35;;;25.70;85.40;;;;;;6127491;23;20009;-90
2021/07/19 02:58:01;;;;;;;9.43;8.38;;;25.70;85.50;;;;;;6127257;23;20066;-90
2021/07/19 03:00:28;;;;;;;9.25;8.25;;;25.70;85.50;;;;;;6127834;23;20003;-90
2021/07/19 03:03:01;;;;;;;12.13;9.02;;;25.70;85.50;;;;;;6126781;23;20039;-90
2021/07/19 03:05:38;;;;;;;10.48;9.35;;;25.80;85.90;;;;;;6126727;23;20002;-90
2021/07/19 03:08:06;;;;;;;9.75;8.50;;;25.80;86.50;;;;;;6126587;23;20013;-89
2021/07/19 03:10:34;;;;;;;12.50;9.68;;;25.80;85.90;;;;;;6128032;23;20354;-90
2021/07/19 03:13:09;;;;;;;9.73;8.38;;;25.80;86.00;;;;;;6126681;23;20014;-90
2021/07/19 03:15:38;;;;;;;9.68;8.73;;;25.80;86.50;;;;;;6126551;23;20513;-90
2021/07/19 03:18:05;;;;;;;10.38;8.00;;;25.90;85.90;;;;;;6126635;23;20009;-90
2021/07/19 03:20:36;;;;;;;10.30;8.80;;;25.90;85.60;;;;;;6126406;23;20332;-90
2021/07/19 03:23:06;;;;;;;9.93;8.73;;;26.00;85.50;;;;;;6126737;23;20005;-90
2021/07/19 03:25:33;;;;;;;11.35;8.50;;;26.00;85.30;;;;;;6126672;23;20002;-90
2021/07/19 03:28:00;;;;;;;12.82;8.32;;;26.00;85.10;;;;;;6126425;23;20053;-89
2021/07/19 03:30:26;;;;;;;10.77;8.90;;;26.00;84.90;;;;;;6126279;23;20071;-89
2021/07/19 03:32:53;;;;;;;9.30;8.27;;;26.10;84.90;;;;;;6128270;23;20009;-89
2021/07/19 03:35:22;;;;;;;10.75;8.45;;;26.20;84.80;;;;;;6126728;23;20029;-89
2021/07/19 03:37:49;;;;;;;10.65;8.80;;;26.20;84.70;;;;;;6128125;23;20064;-89
2021/07/19 03:40:19;;;;;;;10.07;8.98;;;26.20;84.70;;;;;;6127954;23;20029;-89
2021/07/19 03:42:47;;;;;;;9.38;7.78;;;26.30;84.80;;;;;;6126980;23;20002;-89
2021/07/19 03:45:14;;;;;;;10.30;8.82;;;26.30;84.70;;;;;;6127637;23;20055;-89
2021/07/19 03:47:41;;;;;;;8.85;7.43;;;26.30;84.60;;;;;;6134440;23;20002;-89
2021/07/19 03:50:09;;;;;;;10.27;9.27;;;26.40;85.10;;;;;;6133453;23;20006;-89
2021/07/19 03:52:40;;;;;;;12.45;9.57;;;26.50;84.60;;;;;;6128310;23;20013;-89
2021/07/19 03:55:08;;;;;;;10.65;8.95;;;26.60;84.50;;;;;;6128311;23;19994;-90
2021/07/19 03:57:39;;;;;;;11.05;9.10;;;26.60;84.20;;;;;;6126617;23;20016;-90
2021/07/19 04:00:13;;;;;;;10.85;9.32;;;26.70;84.10;;;;;;6126417;23;20002;-89
2021/07/19 04:02:44;;;;;;;12.48;8.95;;;26.70;84.00;;;;;;6138449;23;20087;-90
2021/07/19 04:05:14;;;;;;;10.80;9.23;;;26.80;83.60;;;;;;6145337;23;20006;-90
2021/07/19 04:07:44;;;;;;;11.55;9.20;;;26.80;83.40;;;;;;6148541;23;20588;-90
2021/07/19 04:10:12;;;;;;;9.70;7.95;;;26.70;83.20;;;;;;6149138;23;20018;-89
2021/07/19 04:12:46;;;;;;;8.77;7.88;;;26.80;83.20;;;;;;6145372;23;20066;-90
2021/07/19 04:15:13;;;;;;;8.73;7.47;;;26.90;83.10;;;;;;6133303;23;20307;-90
2021/07/19 04:17:39;;;;;;;8.57;7.68;;;26.90;82.50;;;;;;6127361;23;20006;-89
2021/07/19 04:20:09;;;;;;;10.20;8.07;;;27.10;82.30;;;;;;6126608;23;20006;-89
2021/07/19 04:22:34;;;;;;;8.95;7.50;;;27.20;81.80;;;;;;6130069;23;20088;-90
2021/07/19 04:25:06;;;;;;;9.35;7.53;;;27.30;81.30;;;;;;6126648;23;20002;-89
2021/07/19 04:27:34;;;;;;;11.15;7.75;;;27.40;80.90;;;;;;6127336;23;20002;-90
2021/07/19 04:30:00;;;;;;;9.02;7.78;;;27.50;80.30;;;;;;6125837;23;20017;-90
2021/07/19 04:32:26;;;;;;;9.43;6.57;;;27.60;79.70;;;;;;6102633;23;20010;-89
2021/07/19 04:34:51;;;;;;;10.07;7.80;;;27.80;79.40;;;;;;6102480;23;20005;-89
2021/07/19 04:37:17;;;;;;;10.02;6.82;;;27.90;78.80;;;;;;6104056;23;20002;-89
2021/07/19 04:39:43;;;;;;;8.57;7.47;;;28.00;78.20;;;;;;6102052;23;20002;-90
2021/07/19 04:42:09;;;;;;;8.13;7.32;;;28.10;77.60;;;;;;6103062;23;20374;-90
2021/07/19 04:44:36;;;;;;;9.88;8.27;;;28.20;77.00;;;;;;6102164;23;20041;-90
2021/07/19 04:47:02;;;;;;;8.45;7.15;;;28.30;76.30;;;;;;6102098;23;19998;-89
2021/07/19 04:49:28;;;;;;;8.50;7.70;;;28.30;76.00;;;;;;6101944;23;20009;-90
2021/07/19 04:51:54;;;;;;;9.25;7.43;;;28.30;75.80;;;;;;6102325;23;20016;-90
2021/07/19 04:54:25;;;;;;;9.55;8.02;;;28.30;75.60;;;;;;6102016;23;20093;-89
2021/07/19 04:56:54;;;;;;;8.02;7.22;;;28.40;75.30;;;;;;6101835;23;20079;-89
2021/07/19 04:59:21;;;;;;;8.82;6.93;;;28.40;75.10;;;;;;6101336;23;20079;-89
2021/07/19 05:01:53;;;;;;;8.75;7.95;;;28.50;75.20;;;;;;6101870;23;20477;-90
2021/07/19 05:04:24;;;;;;;9.85;8.02;;;28.60;75.10;;;;;;6101814;23;20002;-90
2021/07/19 05:06:51;;;;;;;8.65;7.40;;;28.70;75.00;;;;;;6101641;23;20002;-90
2021/07/19 05:09:18;;;;;;;10.10;8.55;;;28.90;74.70;;;;;;6101989;23;20080;-90
2021/07/19 05:11:45;;;;;;;8.30;7.38;;;29.00;74.90;;;;;;6127305;23;20006;-89
2021/07/19 05:14:11;;;;;;;8.75;7.60;;;29.10;74.00;;;;;;6127120;23;20069;-89
2021/07/19 05:16:39;;;;;;;8.48;7.47;;;29.20;73.90;;;;;;6106300;23;20002;-90
2021/07/19 05:19:05;;;;;;;9.32;8.43;;;29.20;73.60;;;;;;6112657;23;20006;-90
2021/07/19 05:21:38;;;;;;;8.98;7.93;;;29.30;73.40;;;;;;6117266;23;20018;-88
2021/07/19 05:24:05;;;;;;;9.93;8.60;;;29.40;72.60;;;;;;6114666;23;20065;-89
2021/07/19 05:26:32;;;;;;;8.80;7.13;;;29.50;72.50;;;;;;6111414;23;20089;-90
2021/07/19 05:29:00;;;;;;;9.93;8.52;;;29.50;72.10;;;;;;6106533;23;20045;-89
2021/07/19 05:31:27;;;;;;;9.68;8.65;;;29.60;71.80;;;;;;6117846;23;20041;-88
2021/07/19 05:33:53;;;;;;;9.38;7.90;;;29.40;71.50;;;;;;6129665;23;20010;-90
2021/07/19 05:36:19;;;;;;;9.82;7.88;;;29.40;71.70;;;;;;6128941;23;20006;-89
2021/07/19 05:38:48;;;;;;;9.48;7.82;;;29.50;71.40;;;;;;6128197;23;20005;-89
2021/07/19 05:41:14;;;;;;;9.05;7.50;;;29.50;71.30;;;;;;6129700;23;20002;-89
2021/07/19 05:43:40;;;;;;;9.23;8.05;;;29.50;71.20;;;;;;6129822;23;20009;-89
2021/07/19 05:46:06;;;;;;;13.68;8.52;;;29.50;70.70;;;;;;6128281;23;20002;-89
2021/07/19 05:48:32;;;;;;;9.05;8.10;;;29.50;70.10;;;;;;6128423;23;20395;-89
2021/07/19 05:50:59;;;;;;;9.52;7.63;;;29.50;70.20;;;;;;6130526;23;20078;-89
2021/07/19 05:53:27;;;;;;;11.30;6.85;;;29.60;70.20;;;;;;6131415;23;20085;-90
2021/07/19 05:55:53;;;;;;;9.77;7.30;;;29.60;70.20;;;;;;6127929;23;20002;-90
2021/07/19 05:58:19;;;;;;;8.48;7.15;;;29.70;70.10;;;;;;6127409;23;20002;-90
2021/07/19 06:00:45;;;;;;;9.13;7.78;;;29.90;69.80;;;;;;6128917;23;20291;-89
2021/07/19 06:03:11;;;;;;;11.73;8.05;;;30.10;69.30;;;;;;6127812;23;20002;-90
2021/07/19 06:05:37;;;;;;;8.57;7.00;;;30.20;68.80;;;;;;6127354;23;20002;-89
2021/07/19 06:08:04;;;;;;;9.32;7.35;;;30.40;68.20;;;;;;6128069;23;20427;-89
2021/07/19 06:10:33;;;;;;;8.52;7.25;;;30.50;67.70;;;;;;6126953;23;20013;-89
2021/07/19 06:12:59;;;;;;;8.93;7.85;;;30.60;67.30;;;;;;6136351;23;20033;-90
2021/07/19 06:15:25;;;;;;;9.13;7.97;;;30.50;66.90;;;;;;6146166;23;19990;-90
2021/07/19 06:17:54;;;;;;;10.35;7.68;;;30.50;67.00;;;;;;6145247;23;20006;-90
2021/07/19 06:20:33;;;;;;;13.88;10.05;;;30.50;67.00;;;;;;6147293;23;20029;-89
2021/07/19 06:23:02;;;;;;;11.52;8.25;;;30.50;66.10;;;;;;6148534;23;20002;-89
2021/07/19 06:25:33;;;;;;;11.88;9.95;;;30.30;65.30;;;;;;6142845;23;20493;-90
2021/07/19 06:28:00;;;;;;;10.82;8.27;;;30.20;65.10;;;;;;6130206;23;20026;-90
2021/07/19 06:30:27;;;;;;;9.30;8.38;;;30.10;65.90;;;;;;6128950;23;20068;-91
2021/07/19 06:32:54;;;;;;;11.52;7.88;;;30.10;66.20;;;;;;6127855;23;20037;-89
2021/07/19 06:35:20;;;;;;;9.25;8.35;;;30.20;66.30;;;;;;6128650;23;20035;-89
2021/07/19 06:37:48;;;;;;;9.25;7.90;;;30.30;66.10;;;;;;6130103;23;20002;-90
2021/07/19 06:40:16;;;;;;;11.02;8.50;;;30.40;65.80;;;;;;6131597;23;20458;-90
2021/07/19 06:42:43;;;;;;;10.05;8.00;;;30.40;65.60;;;;;;6129998;23;20018;-89
2021/07/19 06:45:11;;;;;;;12.57;8.63;;;30.40;65.60;;;;;;6128759;23;20002;-90
2021/07/19 06:47:38;;;;;;;9.50;8.50;;;30.40;65.60;;;;;;6131629;23;20025;-89
2021/07/19 06:50:05;;;;;;;10.68;7.90;;;30.50;65.50;;;;;;6128437;23;19998;-91
2021/07/19 06:52:31;;;;;;;9.85;7.85;;;30.60;64.80;;;;;;6132579;23;20088;-90
2021/07/19 06:55:05;;;;;;;7.55;6.75;;;30.60;64.80;;;;;;6137122;23;20016;-91
2021/07/19 06:57:50;;;;;;;8.52;7.70;;;30.70;63.80;;;;;;6130916;23;20361;-93
2021/07/19 07:00:20;;;;;;;7.65;6.82;;;30.70;63.30;;;;;;6109249;23;20006;-93
2021/07/19 07:02:49;;;;;;;9.05;7.60;;;30.70;63.40;;;;;;6139018;23;20018;-93
2021/07/19 07:05:15;;;;;;;9.65;8.27;;;30.80;63.20;;;;;;6139026;23;20017;-94
2021/07/19 07:07:44;;;;;;;8.98;7.63;;;30.90;62.90;;;;;;6136596;23;20061;-92
2021/07/19 07:10:38;;;;;;;;;;;;;;;;;;;;;
2021/07/19 07:13:09;;;;;;;7.45;6.63;;;31.10;61.70;;;;;;6140465;23;20045;-93
2021/07/19 07:15:41;;;;;;;9.52;8.18;;;31.10;62.00;;;;;;6141047;23;20088;-94
2021/07/19 07:18:10;;;;;;;11.95;8.82;;;31.30;61.20;;;;;;6138648;23;20009;-95
2021/07/19 07:20:58;;;;;;;8.43;7.55;;;31.30;60.30;;;;;;6140177;23;20006;-94
2021/07/19 07:23:24;;;;;;;9.25;8.30;;;31.30;58.90;;;;;;6135898;23;20017;-92
2021/07/19 07:25:57;;;;;;;9.20;8.30;;;31.30;59.10;;;;;;6138191;23;20066;-93
2021/07/19 07:28:23;;;;;;;8.57;7.75;;;31.20;58.50;;;;;;6138744;23;20005;-94
2021/07/19 07:30:49;;;;;;;8.93;8.10;;;31.20;59.10;;;;;;6137148;23;20038;-92
2021/07/19 07:33:18;;;;;;;8.77;7.85;;;31.20;59.20;;;;;;6114644;23;20014;-93
2021/07/19 07:35:45;;;;;;;9.73;8.68;;;31.30;58.50;;;;;;6112653;23;20010;-92
2021/07/19 07:38:11;;;;;;;8.50;7.53;;;31.20;59.00;;;;;;6110428;23;19998;-92
2021/07/19 07:40:43;;;;;;;11.77;8.10;;;31.30;59.10;;;;;;6110943;23;20057;-95
2021/07/19 07:43:09;;;;;;;10.10;9.00;;;31.40;59.50;;;;;;6115636;23;19998;-94
2021/07/19 07:45:35;;;;;;;10.93;9.68;;;31.40;59.20;;;;;;6119465;23;20008;-93
2021/07/19 07:48:01;;;;;;;12.85;9.60;;;31.40;59.40;;;;;;6117602;23;20002;-93
2021/07/19 07:50:27;;;;;;;11.98;8.90;;;31.40;59.60;;;;;;6142860;23;20152;-93
2021/07/19 07:52:54;;;;;;;11.25;9.57;;;31.40;59.40;;;;;;6107592;23;20010;-94
2021/07/19 07:55:20;;;;;;;10.07;9.02;;;31.30;59.10;;;;;;6107414;23;20045;-93
2021/07/19 07:57:46;;;;;;;12.20;7.63;;;31.30;59.00;;;;;;6115845;23;20002;-93
2021/07/19 08:00:19;;;;;;;10.95;9.13;;;31.30;59.20;;;;;;6115081;23;20008;-93
2021/07/19 08:02:46;;;;;;;9.45;8.52;;;31.40;59.40;;;;;;6142119;23;20009;-93
2021/07/19 08:05:14;;;;;;;11.40;9.10;;;31.40;59.10;;;;;;6109756;23;20009;-92
2021/07/19 08:07:40;;;;;;;14.88;9.00;;;31.50;58.80;;;;;;6139585;23;20005;-91
2021/07/19 08:10:08;;;;;;;10.77;7.38;;;31.50;58.90;;;;;;6110606;23;20009;-93
2021/07/19 08:12:36;;;;;;;10.45;8.10;;;31.60;59.20;;;;;;6138386;23;20014;-93
2021/07/19 08:15:06;;;;;;;8.52;7.63;;;31.70;59.00;;;;;;6130886;23;20010;-94
2021/07/19 08:17:33;;;;;;;10.35;7.90;;;31.70;59.00;;;;;;6108012;23;20009;-93
2021/07/19 08:19:59;;;;;;;10.13;7.40;;;31.80;59.00;;;;;;6109839;23;19998;-92
2021/07/19 08:22:26;;;;;;;8.55;7.75;;;32.00;59.30;;;;;;6109256;23;20002;-93
2021/07/19 08:24:52;;;;;;;9.40;8.23;;;32.10;58.90;;;;;;6086237;23;20006;-93
2021/07/19 08:27:18;;;;;;;9.10;8.20;;;32.20;58.70;;;;;;6119372;23;20002;-91
2021/07/19 08:29:53;;;;;;;10.85;8.13;;;32.30;58.60;;;;;;6146589;23;20021;-92
2021/07/19 08:32:20;;;;;;;8.98;8.05;;;32.30;58.10;;;;;;6146027;23;20025;-94
2021/07/19 08:34:46;;;;;;;8.88;7.82;;;32.30;57.90;;;;;;6147535;23;20021;-93
2021/07/19 08:37:13;;;;;;;9.05;7.63;;;32.40;58.10;;;;;;6146136;23;20090;-93
2021/07/19 08:39:41;;;;;;;8.65;7.85;;;32.50;57.40;;;;;;6140399;23;19998;-92
2021/07/19 08:42:12;;;;;;;8.50;7.60;;;32.60;56.60;;;;;;6140484;23;20006;-92
2021/07/19 08:44:39;;;;;;;10.50;7.60;;;32.50;56.60;;;;;;6131828;23;20059;-93
2021/07/19 08:47:10;;;;;;;9.48;8.48;;;32.60;56.80;;;;;;6136466;23;20059;-92
2021/07/19 08:49:37;;;;;;;10.43;7.95;;;32.50;56.10;;;;;;6136053;23;20065;-92
2021/07/19 08:52:04;;;;;;;9.35;7.43;;;32.50;56.20;;;;;;6143578;23;19998;-94
2021/07/19 08:54:34;;;;;;;10.57;7.78;;;32.50;56.20;;;;;;6142334;23;20049;-93
2021/07/19 08:57:00;;;;;;;9.13;7.95;;;32.40;55.80;;;;;;6134670;23;20006;-92
2021/07/19 08:59:26;;;;;;;8.88;7.63;;;32.40;55.50;;;;;;6130106;23;20009;-93
2021/07/19 09:01:52;;;;;;;9.50;8.50;;;32.30;55.50;;;;;;6128599;23;20002;-92
2021/07/19 09:04:19;;;;;;;8.80;7.38;;;32.30;55.50;;;;;;6130706;23;20005;-93
2021/07/19 09:06:46;;;;;;;6.63;5.97;;;32.40;55.80;;;;;;6134460;23;19998;-93
2021/07/19 09:09:12;;;;;;;8.00;7.20;;;32.60;55.90;;;;;;6135561;23;20057;-92
2021/07/19 09:11:49;;;;;;;9.00;6.93;;;32.70;55.30;;;;;;6136802;23;20002;-91
2021/07/19 09:14:17;;;;;;;8.75;7.88;;;32.80;54.50;;;;;;6131056;23;20028;-89
2021/07/19 09:16:51;;;;;;;8.20;6.53;;;32.80;54.90;;;;;;6131842;23;20426;-91
2021/07/19 09:19:22;;;;;;;9.95;8.20;;;32.90;55.10;;;;;;6141130;23;20366;-91
2021/07/19 09:22:31;;;;;;;;;;;;;;;;;;;;;
2021/07/19 09:25:11;;;;;;;8.43;7.55;;;33.00;54.80;;;;;;6136740;23;20029;-90
2021/07/19 09:28:23;;;;;;;9.68;7.93;;;33.10;54.90;;;;;;6137847;23;20048;-90
2021/07/19 09:30:59;;;;;;;8.48;7.63;;;33.10;53.90;;;;;;6085517;23;20017;-90
2021/07/19 09:33:28;;;;;;;7.18;6.35;;;33.10;55.00;;;;;;6140445;23;20022;-90
2021/07/19 09:35:54;;;;;;;8.85;7.88;;;33.30;55.00;;;;;;6146009;23;20035;-92
2021/07/19 09:38:28;;;;;;;10.30;6.97;;;33.40;54.80;;;;;;6144106;23;20010;-91
2021/07/19 09:41:10;;;;;;;8.38;7.40;;;33.50;54.80;;;;;;6130765;23;20017;-90
2021/07/19 09:43:36;;;;;;;9.02;7.57;;;33.70;54.70;;;;;;6146315;23;20002;-89
2021/07/19 09:46:16;;;;;;;9.55;7.38;;;33.80;54.70;;;;;;6144703;23;20060;-89
2021/07/19 09:48:55;;;;;;;7.72;6.93;;;33.90;54.70;;;;;;6147015;23;19993;-91
2021/07/19 09:51:43;;;;;;;8.82;7.72;;;34.10;54.50;;;;;;6144669;23;20002;-90
2021/07/19 09:54:17;;;;;;;8.38;6.85;;;34.10;54.10;;;;;;6144268;23;20006;-91
2021/07/19 09:56:44;;;;;;;9.73;7.28;;;34.20;54.10;;;;;;6145205;23;20009;-90
2021/07/19 09:59:25;;;;;;;8.43;7.53;;;34.20;54.10;;;;;;6139058;23;20013;-91
2021/07/19 10:01:55;;;;;;;8.55;7.65;;;34.20;53.70;;;;;;6142868;23;20009;-90
2021/07/19 10:04:26;;;;;;;8.38;7.35;;;34.20;53.90;;;;;;6114864;23;20006;-91
2021/07/19 10:07:06;;;;;;;;;;;;;;;;;;;;;
2021/07/19 10:09:38;;;;;;;9.07;8.10;;;34.40;53.40;;;;;;6141228;23;20032;-91
2021/07/19 10:12:16;;;;;;;8.40;7.53;;;34.20;53.20;;;;;;6139798;23;20163;-91
2021/07/19 10:15:24;;;;;;;10.27;7.60;;;34.20;53.20;;;;;;6136852;23;20010;-92
2021/07/19 10:17:55;;;;;;;10.95;8.52;;;34.10;53.00;;;;;;6113132;23;20014;-90
2021/07/19 10:20:26;;;;;;;8.73;7.60;;;34.00;53.50;;;;;;6133545;23;20010;-89
2021/07/19 10:22:55;;;;;;;8.70;7.47;;;33.90;53.90;;;;;;6134907;23;20006;-91
2021/07/19 10:25:40;;;;;;;;;;;;;;;;;;;;;
2021/07/19 10:28:10;;;;;;;7.53;6.82;;;34.10;53.40;;;;;;6140023;23;20025;-90
2021/07/19 10:30:36;;;;;;;7.78;6.82;;;34.10;53.60;;;;;;6139320;23;20017;-91
2021/07/19 10:33:04;;;;;;;9.38;7.53;;;34.10;53.60;;;;;;6132504;23;20027;-90
2021/07/19 10:35:32;;;;;;;9.35;7.93;;;34.20;53.40;;;;;;6174754;23;20011;-89
2021/07/19 10:38:10;;;;;;;7.85;7.00;;;34.20;52.20;;;;;;6177297;23;20009;-89
2021/07/19 10:40:49;;;;;;;8.38;7.00;;;34.20;52.30;;;;;;6204273;23;20008;-90
2021/07/19 10:43:22;;;;;;;11.30;7.43;;;34.20;52.60;;;;;;6180313;23;20040;-90
2021/07/19 10:45:56;;;;;;;7.80;7.05;;;34.30;52.70;;;;;;6181099;23;20005;-90
2021/07/19 10:48:56;;;;;;;;;;;;;;;;;;;;;
2021/07/19 10:51:44;;;;;;;9.05;6.70;;;34.40;51.90;;;;;;6204153;23;20028;-90
2021/07/19 10:54:32;;;;;;;9.23;6.65;;;34.40;51.90;;;;;;6174739;23;20096;-90
2021/07/19 10:57:23;;;;;;;8.35;7.10;;;34.60;51.50;;;;;;6199755;23;20008;-91
2021/07/19 11:00:32;;;;;;;7.75;6.32;;;34.60;51.60;;;;;;6195041;23;20009;-89
2021/07/19 11:03:19;;;;;;;7.47;6.72;;;34.60;50.70;;;;;;6170174;23;20108;-89
2021/07/19 11:05:53;;;;;;;7.00;6.30;;;34.70;50.90;;;;;;6141705;23;20488;-89
2021/07/19 11:08:33;;;;;;;7.75;6.53;;;34.80;50.30;;;;;;6141830;23;20005;-89
2021/07/19 11:11:06;;;;;;;8.18;6.18;;;34.80;49.10;;;;;;6141547;23;20004;-89
2021/07/19 11:14:04;;;;;;;7.35;6.65;;;34.80;49.60;;;;;;6118952;23;20028;-90
2021/07/19 11:17:17;;;;;;;8.18;6.13;;;34.90;47.50;;;;;;6146409;23;20001;-89
2021/07/19 11:20:17;;;;;;;;;;;;;;;;;;;;;
2021/07/19 11:22:51;;;;;;;;;;;;;;;;;;;;;
2021/07/19 11:25:19;;;;;;;6.20;5.60;;;34.80;46.40;;;;;;6163819;23;20040;-89
2021/07/19 11:27:49;;;;;;;7.25;5.85;;;34.60;45.50;;;;;;6162430;23;20445;-88
2021/07/19 11:30:23;;;;;;;8.57;6.80;;;34.50;45.10;;;;;;6134577;23;20009;-88
2021/07/19 11:33:15;;;;;;;7.68;6.88;;;34.50;45.90;;;;;;6161075;23;20065;-90
2021/07/19 11:35:45;;;;;;;8.27;6.20;;;34.40;45.60;;;;;;6137543;23;20072;-89
2021/07/19 11:38:16;;;;;;;9.05;6.50;;;34.40;46.50;;;;;;6139076;23;20016;-89
2021/07/19 11:40:43;;;;;;;6.65;5.97;;;34.50;47.40;;;;;;6137431;23;20008;-89
2021/07/19 11:43:15;;;;;;;10.85;7.88;;;34.60;48.00;;;;;;6136237;23;20136;-89
2021/07/19 11:45:43;;;;;;;8.15;7.35;;;34.50;47.30;;;;;;6136594;23;20014;-89
2021/07/19 11:48:10;;;;;;;10.32;7.85;;;34.50;48.20;;;;;;6114406;23;20084;-91
2021/07/19 11:50:42;;;;;;;9.68;7.72;;;34.30;48.20;;;;;;6138917;23;20008;-89
2021/07/19 11:53:08;;;;;;;;;;;34.10;49.30;;;;;;6136680;23;20033;-90
2021/07/19 11:55:34;;;;;;;22.90;7.72;;;33.40;50.70;;;;;;6134656;23;19908;-92
2021/07/19 11:58:22;;;;;;;21.95;6.93;;;32.70;51.80;;;;;;6109085;23;20005;-90
2021/07/19 12:01:03;;;;;;;11.18;6.85;;;31.70;53.40;;;;;;6164481;23;19998;-90
2021/07/19 12:03:30;;;;;;;8.90;5.68;;;30.60;55.60;;;;;;6134142;23;20330;-91
2021/07/19 12:06:03;;;;;;;10.30;6.13;;;29.80;57.90;;;;;;6159303;23;20040;-91
2021/07/19 12:08:35;;;;;;;12.98;7.28;;;29.30;59.90;;;;;;6139652;23;20068;-88
2021/07/19 12:11:14;;;;;;;11.63;6.55;;;28.80;60.80;;;;;;6140869;23;20038;-90
2021/07/19 12:13:51;;;;;;;6.85;5.68;;;28.60;61.70;;;;;;6142017;23;20068;-90
2021/07/19 12:16:19;;;;;;;7.45;5.43;;;28.40;63.10;;;;;;6120370;23;20009;-90
2021/07/19 12:18:50;;;;;;;9.48;6.30;;;28.10;65.00;;;;;;6171044;23;20001;-90
2021/07/19 12:21:23;;;;;;;12.38;5.93;;;27.80;68.80;;;;;;6144946;23;20011;-90
2021/07/19 12:23:54;;;;;;;7.38;5.57;;;27.40;70.30;;;;;;6143226;23;20008;-89
2021/07/19 12:26:53;;;;;;;8.30;6.03;;;27.00;73.20;;;;;;6166958;23;20024;-90
2021/07/19 12:29:29;;;;;;;7.45;4.95;;;26.30;82.60;;;;;;6137124;23;20040;-90
2021/07/19 12:32:03;;;;;;;8.80;4.70;;;25.20;90.00;;;;;;6164519;23;20032;-91
2021/07/19 12:34:40;;;;;;;11.13;6.50;;;24.20;92.80;;;;;;6145591;23;20032;-89
2021/07/19 12:37:15;;;;;;;8.13;5.13;;;23.60;94.00;;;;;;6142185;23;20005;-89
2021/07/19 12:39:57;;;;;;;6.28;5.50;;;23.30;95.80;;;;;;6142343;23;20006;-91
2021/07/19 12:42:30;;;;;;;7.40;5.75;;;23.00;97.50;;;;;;6147880;23;20002;-91
2021/07/19 12:45:07;;;;;;;7.80;4.97;;;22.90;99.10;;;;;;6121478;23;20021;-92
2021/07/19 12:48:17;;;;;;;8.32;5.40;;;23.00;99.90;;;;;;6127993;23;20009;-92
2021/07/19 12:51:29;;;;;;;7.05;5.30;;;23.30;99.90;;;;;;6176809;23;20025;-92
2021/07/19 12:54:18;;;;;;;6.13;5.53;;;23.80;99.90;;;;;;6088502;23;20056;-92
2021/07/19 12:57:01;;;;;;;10.98;6.65;;;24.40;99.90;;;;;;6086707;23;20033;-91
2021/07/19 12:59:29;;;;;;;8.15;6.00;;;25.00;99.90;;;;;;6061577;23;20064;-93
2021/07/19 13:01:57;;;;;;;7.60;5.75;;;25.50;99.90;;;;;;6114999;23;20489;-93
2021/07/19 13:04:30;;;;;;;6.32;5.22;;;25.90;99.90;;;;;;6138723;23;20029;-92
2021/07/19 13:06:59;;;;;;;9.98;5.30;;;26.30;99.90;;;;;;6164280;23;19998;-93
2021/07/19 13:09:32;;;;;;;;;;;26.70;99.10;;;;;;6162622;23;20009;-92
2021/07/19 13:12:40;;;;;;;8.05;5.72;;;26.80;96.30;;;;;;6162198;23;19901;-93